TimePST,TemperatureF,Dew PointF,Humidity,Sea Level PressureIn,VisibilityMPH,Wind Direction,Wind SpeedMPH,Gust SpeedMPH,PrecipitationIn,Events,Conditions,WindDirDegrees,DateUTC
12:16 AM,33.8,33.8,100,29.85,5.0,ESE,3.5,-,N/A,,Partly Cloudy,120,2012-11-09 08:16:00
12:55 AM,34.0,33.1,96,29.85,10.0,ESE,4.6,-,N/A,,Partly Cloudy,120,2012-11-09 08:55:00
1:55 AM,34.0,33.1,96,29.86,10.0,SE,5.8,-,N/A,,Clear,130,2012-11-09 09:55:00
2:55 AM,30.9,30.9,100,29.86,9.0,SE,4.6,-,N/A,,Clear,140,2012-11-09 10:55:00
3:55 AM,30.9,30.9,100,29.86,10.0,ESE,4.6,-,N/A,,Clear,120,2012-11-09 11:55:00
4:51 AM,30.2,30.2,100,29.86,2.0,Calm,Calm,-,N/A,,Clear,0,2012-11-09 12:51:00
4:55 AM,30.9,30.0,96,29.86,4.0,Calm,Calm,-,N/A,,Clear,0,2012-11-09 12:55:00
5:55 AM,32.0,32.0,100,29.86,10.0,SE,4.6,-,N/A,,Mostly Cloudy,130,2012-11-09 13:55:00
6:14 AM,32.0,32.0,100,29.86,10.0,SE,4.6,-,N/A,,Mostly Cloudy,130,2012-11-09 14:14:00
6:26 AM,32.0,32.0,100,29.86,10.0,SE,3.5,-,N/A,,Mostly Cloudy,140,2012-11-09 14:26:00
6:55 AM,34.0,33.1,96,29.86,10.0,East,4.6,-,N/A,,Overcast,100,2012-11-09 14:55:00
7:35 AM,33.8,33.8,100,29.87,10.0,Calm,Calm,-,N/A,,Mostly Cloudy,0,2012-11-09 15:35:00
7:55 AM,35.1,34.0,96,29.88,10.0,East,4.6,-,N/A,,Mostly Cloudy,90,2012-11-09 15:55:00
8:04 AM,35.6,33.8,93,29.88,8.0,ESE,3.5,-,N/A,,Mostly Cloudy,110,2012-11-09 16:04:00
8:09 AM,35.6,33.8,93,29.88,2.5,ESE,4.6,-,N/A,,Mostly Cloudy,120,2012-11-09 16:09:00
8:12 AM,35.6,33.8,93,29.88,1.0,SE,3.5,-,N/A,,Mostly Cloudy,130,2012-11-09 16:12:00
8:18 AM,35.6,35.6,100,29.88,0.2,SE,4.6,-,N/A,Fog,Fog,130,2012-11-09 16:18:00
8:35 AM,35.6,35.6,100,29.88,0.5,SE,4.6,-,N/A,Fog,Fog,130,2012-11-09 16:35:00
8:55 AM,37.0,37.0,100,29.88,0.8,SE,3.5,-,N/A,,Overcast,130,2012-11-09 16:55:00
9:01 AM,37.4,37.4,100,29.88,1.5,SE,3.5,-,N/A,,Overcast,130,2012-11-09 17:01:00
9:06 AM,37.4,37.4,100,29.88,3.0,ESE,4.6,-,N/A,,Mostly Cloudy,120,2012-11-09 17:06:00
9:16 AM,37.4,37.4,100,29.88,8.0,SE,4.6,-,N/A,,Mostly Cloudy,130,2012-11-09 17:16:00
9:26 AM,37.4,37.4,100,29.88,9.0,SE,5.8,-,N/A,,Mostly Cloudy,140,2012-11-09 17:26:00
9:35 AM,37.4,37.4,100,29.88,10.0,SE,4.6,-,N/A,,Mostly Cloudy,130,2012-11-09 17:35:00
9:55 AM,39.0,37.9,96,29.88,9.0,East,5.8,-,N/A,,Partly Cloudy,100,2012-11-09 17:55:00
10:55 AM,43.0,39.9,89,29.88,10.0,ESE,5.8,-,N/A,,Partly Cloudy,120,2012-11-09 18:55:00
11:55 AM,46.9,39.0,74,29.87,10.0,East,4.6,-,N/A,,Scattered Clouds,90,2012-11-09 19:55:00
12:55 PM,48.0,37.9,68,29.86,10.0,ENE,8.1,-,N/A,,Mostly Cloudy,60,2012-11-09 20:55:00
1:55 PM,46.9,39.9,77,29.86,10.0,NE,6.9,-,N/A,,Overcast,50,2012-11-09 21:55:00
2:55 PM,46.0,37.0,71,29.85,10.0,East,4.6,-,0.00,,Overcast,90,2012-11-09 22:55:00
3:23 PM,44.6,37.4,76,29.85,10.0,NNW,18.4,26.5,N/A,Thunderstorm,Overcast,340,2012-11-09 23:23:00
3:32 PM,44.6,35.6,71,29.86,10.0,NNW,13.8,26.5,N/A,Thunderstorm,Overcast,330,2012-11-09 23:32:00
3:41 PM,42.8,37.4,81,29.86,10.0,NW,17.3,-,0.00,Rain,Light Rain,310,2012-11-09 23:41:00
3:55 PM,42.1,36.0,79,29.86,10.0,West,13.8,-,0.02,Rain,Light Rain,260,2012-11-09 23:55:00
4:55 PM,39.9,37.0,89,29.87,10.0,SSE,3.5,-,0.00,,Scattered Clouds,150,2012-11-10 00:55:00
5:55 PM,37.0,36.0,96,29.89,10.0,Calm,Calm,-,N/A,,Clear,0,2012-11-10 01:55:00
6:55 PM,36.0,36.0,100,29.89,10.0,Calm,Calm,-,N/A,,Clear,0,2012-11-10 02:55:00
7:55 PM,34.0,34.0,100,29.90,9.0,SE,4.6,-,N/A,,Clear,130,2012-11-10 03:55:00
8:13 PM,33.8,33.8,100,29.90,1.5,ESE,4.6,-,N/A,,Partly Cloudy,110,2012-11-10 04:13:00
8:15 PM,33.8,33.8,100,29.90,1.0,ESE,4.6,-,N/A,,Mist,120,2012-11-10 04:15:00
8:26 PM,33.8,33.8,100,29.90,1.5,SE,3.5,-,N/A,,Partly Cloudy,130,2012-11-10 04:26:00
8:28 PM,33.8,33.8,100,29.90,3.0,Calm,Calm,-,N/A,,Partly Cloudy,0,2012-11-10 04:28:00
8:36 PM,33.8,33.8,100,29.91,1.8,Calm,Calm,-,N/A,,Partly Cloudy,0,2012-11-10 04:36:00
8:55 PM,33.1,33.1,100,29.91,3.0,SE,3.5,-,N/A,,Clear,130,2012-11-10 04:55:00
9:55 PM,34.0,34.0,100,29.92,10.0,SSE,3.5,-,N/A,,Clear,150,2012-11-10 05:55:00
10:55 PM,32.0,32.0,100,29.93,10.0,ESE,3.5,-,N/A,,Clear,120,2012-11-10 06:55:00
11:55 PM,30.9,30.9,100,29.94,2.5,SE,3.5,-,N/A,,Clear,140,2012-11-10 07:55:00
11:58 PM,30.2,30.2,100,29.94,1.2,SE,3.5,-,N/A,,Clear,140,2012-11-10 07:58:00